KDAN/DAN METAR and TAF weather

Enter ICAO airport designator
Station Type Date Time Source
KDAN METAR 2021/05/12 01:53 UTC NOAA

KDAN 120153Z AUTO 00000KT 10SM CLR 12/08 A3012 RMK AO2 SLP193 T01170083


Station Type Date Time Source
KDAN Decoded METAR 2021/05/12 01:53 UTC NOAA

DANVILLE REGIONAL AIRPORT, VA, United States (KDAN) 36-34N 079-20W 175M
May 11, 2021 - 09:53 PM EDT / 2021.05.12 0153 UTC
Wind: Calm:0
Visibility: 10 mile(s):0
Sky conditions: clear
Temperature: 53.1 F (11.7 C)
Dew Point: 46.9 F (8.3 C)
Relative Humidity: 79%
Pressure (altimeter): 30.12 in. Hg (1019 hPa)
ob: KDAN 120153Z AUTO 00000KT 10SM CLR 12/08 A3012 RMK AO2 SLP193 T01170083
cycle: 2

Station Type Date Time Source
KDAN TAF 2021/05/11 18:36 UTC NOAA

TAF KDAN 111734Z 1118/1218 06004KT P6SM BKN060
FM112000 24004KT P6SM SCT060 BKN120
FM120200 31007KT P6SM SCT070 BKN100
FM120900 03008KT P6SM OVC060

Example: see airport list